createdAt,value
2018-09-01T00:00:28.514Z,43
2018-09-01T00:01:18.531Z,43
2018-09-01T00:02:08.349Z,43
2018-09-01T00:02:58.376Z,43
2018-09-01T00:03:49.039Z,43
2018-09-01T00:04:38.523Z,43
2018-09-01T00:05:29.141Z,42.9
2018-09-01T00:06:18.953Z,42.9
2018-09-01T00:07:08.693Z,42.9
2018-09-01T00:07:58.553Z,42.9
2018-09-01T00:08:48.848Z,42.9
2018-09-01T00:09:39.434Z,42.9
2018-09-01T00:10:29.303Z,42.9
2018-09-01T00:11:20.558Z,42.9
2018-09-01T00:12:09.396Z,42.9
2018-09-01T00:31:33.306Z,42.8
2018-09-01T00:32:23.532Z,42.8
2018-09-01T00:33:13.621Z,42.8
2018-09-01T00:34:02.837Z,42.8
2018-09-01T00:34:54.047Z,42.8
2018-09-01T00:35:43.241Z,42.8
2018-09-01T00:36:33.047Z,42.8
2018-09-01T00:37:23.900Z,42.8
2018-09-01T00:38:13.723Z,42.8
2018-09-01T00:39:02.955Z,42.7
2018-09-01T00:39:54.159Z,42.7
2018-09-01T00:40:43.348Z,42.8
2018-09-01T00:41:34.815Z,42.7
2018-09-01T00:42:23.175Z,42.7
2018-09-01T00:43:14.663Z,42.7
2018-09-01T00:44:04.741Z,42.7
2018-09-01T00:44:53.394Z,42.7
2018-09-01T00:45:44.096Z,42.7
2018-09-01T00:46:34.652Z,42.7
2018-09-01T00:47:24.472Z,42.6
2018-09-01T00:48:15.312Z,42.6
2018-09-01T00:49:04.289Z,42.7
2018-09-01T00:49:55.196Z,42.6
2018-09-01T00:50:44.393Z,42.6
2018-09-01T00:51:34.991Z,42.6
2018-09-01T00:52:24.815Z,42.6
2018-09-01T00:53:15.476Z,42.6
2018-09-01T00:54:04.972Z,42.6
2018-09-01T00:54:54.282Z,42.6
2018-09-01T00:55:45.364Z,42.6
2018-09-01T00:56:35.424Z,42.6
2018-09-01T00:57:24.919Z,42.6
2018-09-01T00:58:15.066Z,42.6
2018-09-01T00:59:05.443Z,42.6
2018-09-01T00:59:54.565Z,42.6
2018-09-01T01:00:44.582Z,42.6
2018-09-01T01:01:35.628Z,42.6
2018-09-01T01:02:25.410Z,42.6
2018-09-01T01:03:16.150Z,42.6
2018-09-01T01:04:06.040Z,42.6
2018-09-01T01:04:55.487Z,42.6
2018-09-01T01:05:45.853Z,42.6
2018-09-01T01:06:35.634Z,42.5
2018-09-01T01:07:26.230Z,42.6
2018-09-01T01:08:16.316Z,42.5
2018-09-01T01:09:06.665Z,42.5
2018-09-01T01:09:56.204Z,42.5
2018-09-01T01:10:46.254Z,42.5
2018-09-01T01:11:36.316Z,42.5
2018-09-01T01:12:27.194Z,42.5
2018-09-01T01:13:16.716Z,42.5
2018-09-01T01:14:06.797Z,42.4
2018-09-01T01:14:56.267Z,42.5
2018-09-01T01:15:46.354Z,42.4
2018-09-01T01:16:37.244Z,42.4
2018-09-01T01:17:27.125Z,42.4
2018-09-01T01:18:16.511Z,42.4
2018-09-01T01:19:06.070Z,42.4
2018-09-01T01:19:56.992Z,42.4
2018-09-01T01:20:47.036Z,42.4
2018-09-01T01:21:37.081Z,42.4
2018-09-01T01:22:26.881Z,42.4
2018-09-01T01:23:17.185Z,42.4
2018-09-01T01:24:07.629Z,42.4
2018-09-01T01:24:57.911Z,42.4
2018-09-01T01:25:47.950Z,42.4
2018-09-01T01:26:37.754Z,42.4
2018-09-01T01:27:27.821Z,42.4
2018-09-01T01:28:18.176Z,42.4
2018-09-01T01:29:08.298Z,42.4
2018-09-01T01:29:57.776Z,42.4
2018-09-01T01:30:47.808Z,42.4
2018-09-01T01:31:37.828Z,42.4
2018-09-01T01:32:27.888Z,42.4
2018-09-01T01:33:17.649Z,42.4
2018-09-01T01:34:08.334Z,42.4
2018-09-01T01:34:58.401Z,42.3
2018-09-01T01:35:47.915Z,42.3
2018-09-01T01:36:37.921Z,42.3
2018-09-01T01:37:28.602Z,42.3
2018-09-01T01:38:18.637Z,42.3
2018-09-01T01:39:09.254Z,42.3
2018-09-01T01:39:57.935Z,42.3
2018-09-01T01:40:48.595Z,42.3
2018-09-01T01:41:38.635Z,42.3
2018-09-01T01:42:28.113Z,42.3
2018-09-01T01:43:18.753Z,42.3
2018-09-01T01:44:08.556Z,42.3
2018-09-01T01:44:58.867Z,42.3
2018-09-01T01:45:49.503Z,42.3
2018-09-01T01:46:39.303Z,42.3
2018-09-01T01:47:29.104Z,42.3
2018-09-01T01:48:19.409Z,42.3
2018-09-01T01:49:08.674Z,42.3
2018-09-01T01:49:58.715Z,42.3
2018-09-01T01:50:49.362Z,42.3
2018-09-01T01:51:39.685Z,42.3
2018-09-01T01:52:28.922Z,42.3
2018-09-01T01:53:19.796Z,42.3
2018-09-01T01:54:09.064Z,42.3
2018-09-01T01:54:59.387Z,42.3
2018-09-01T01:55:50.100Z,42.2
2018-09-01T01:56:39.809Z,42.2
2018-09-01T01:57:30.133Z,42.2
2018-09-01T01:58:19.068Z,42.2
2018-09-01T01:59:10.524Z,42.2
2018-09-01T01:59:59.289Z,42.2
2018-09-01T02:00:50.105Z,42.2
2018-09-01T02:01:39.709Z,42.2
2018-09-01T02:02:29.789Z,42.2
2018-09-01T02:03:20.891Z,42.1
2018-09-01T02:04:09.932Z,42.1
2018-09-01T02:04:59.131Z,42.1
2018-09-01T02:05:50.027Z,42.1
2018-09-01T02:06:40.681Z,42.1
2018-09-01T02:07:30.968Z,42.1
2018-09-01T02:08:20.486Z,42.1
2018-09-01T02:09:10.561Z,42.1
2018-09-01T02:10:00.612Z,42.1
2018-09-01T02:10:50.966Z,42.1
2018-09-01T02:11:41.065Z,42.1
2018-09-01T02:12:31.103Z,42.1
2018-09-01T02:13:20.691Z,42.1
2018-09-01T02:14:11.532Z,42.1
2018-09-01T02:15:01.256Z,42.1
2018-09-01T02:15:51.293Z,42.1
2018-09-01T02:16:40.540Z,42.1
2018-09-01T02:17:31.390Z,42.1
2018-09-01T02:18:20.923Z,42
2018-09-01T02:19:12.606Z,42
2018-09-01T02:20:01.367Z,42
2018-09-01T02:20:51.105Z,42
2018-09-01T02:21:42.273Z,42
2018-09-01T02:22:31.503Z,42
2018-09-01T02:23:21.863Z,42
2018-09-01T02:24:12.235Z,42
2018-09-01T02:25:02.277Z,42
2018-09-01T02:25:51.792Z,42
2018-09-01T02:26:42.137Z,42
2018-09-01T02:27:32.277Z,42
2018-09-01T02:28:22.865Z,42
2018-09-01T02:29:12.037Z,42
2018-09-01T02:30:02.183Z,41.9
2018-09-01T02:30:52.244Z,41.9
2018-09-01T02:31:42.042Z,42
2018-09-01T02:32:32.473Z,41.9
2018-09-01T02:33:22.097Z,41.9
2018-09-01T02:34:12.742Z,41.9
2018-09-01T02:35:03.316Z,41.9
2018-09-01T02:35:52.565Z,41.9
2018-09-01T02:36:42.657Z,41.9
2018-09-01T02:37:33.303Z,41.9
2018-09-01T02:38:22.764Z,41.9
2018-09-01T02:39:12.796Z,41.9
2018-09-01T02:40:03.706Z,41.9
2018-09-01T02:40:52.378Z,41.9
2018-09-01T02:41:43.293Z,41.9
2018-09-01T02:42:32.780Z,41.9
2018-09-01T02:43:23.781Z,41.9
2018-09-01T02:44:13.481Z,41.9
2018-09-01T02:45:04.051Z,41.8
2018-09-01T02:45:53.638Z,41.9
2018-09-01T02:46:44.252Z,41.9
2018-09-01T02:47:32.870Z,41.8
2018-09-01T02:48:23.256Z,41.9
2018-09-01T02:49:13.292Z,41.8
2018-09-01T02:50:04.484Z,41.8
2018-09-01T02:50:54.029Z,41.8
2018-09-01T02:51:44.261Z,41.8
2018-09-01T02:52:34.125Z,41.8
2018-09-01T02:53:24.481Z,41.8
2018-09-01T02:54:14.226Z,41.8
2018-09-01T02:55:04.579Z,41.8
2018-09-01T02:55:54.675Z,41.8
2018-09-01T02:56:44.431Z,41.8
2018-09-01T02:57:34.793Z,41.8
2018-09-01T02:58:24.307Z,41.8
2018-09-01T02:59:14.903Z,41.8
2018-09-01T03:00:05.047Z,41.8
2018-09-01T03:00:55.352Z,41.8
2018-09-01T03:01:44.815Z,41.8
2018-09-01T03:02:34.895Z,41.8
2018-09-01T03:03:24.665Z,41.8
2018-09-01T03:04:14.731Z,41.8
2018-09-01T03:05:05.597Z,41.8
2018-09-01T03:05:55.106Z,41.7
2018-09-01T03:06:45.485Z,41.7
2018-09-01T03:07:35.027Z,41.7
2018-09-01T03:08:25.471Z,41.7
2018-09-01T03:09:15.173Z,41.7
2018-09-01T03:10:06.040Z,41.7
2018-09-01T03:10:56.587Z,41.7
2018-09-01T03:11:46.185Z,41.7
2018-09-01T03:12:35.996Z,41.7
2018-09-01T03:13:25.237Z,41.7
2018-09-01T03:14:15.612Z,41.7
2018-09-01T03:15:06.136Z,41.7
2018-09-01T03:15:56.977Z,41.6
2018-09-01T03:16:45.987Z,41.6
2018-09-01T03:17:36.318Z,41.6
2018-09-01T03:18:25.550Z,41.6
2018-09-01T03:19:16.471Z,41.6
2018-09-01T03:20:06.833Z,41.6
2018-09-01T03:20:56.831Z,41.6
2018-09-01T03:21:46.652Z,41.6
2018-09-01T03:22:36.012Z,41.6
2018-09-01T03:23:26.583Z,41.6
2018-09-01T03:24:15.876Z,41.6
2018-09-01T03:25:06.138Z,41.6
2018-09-01T03:25:56.760Z,41.6
2018-09-01T03:26:46.295Z,41.6
2018-09-01T03:27:36.924Z,41.6
2018-09-01T03:28:26.946Z,41.6
2018-09-01T03:29:16.738Z,41.6
2018-09-01T03:30:06.289Z,41.6
2018-09-01T03:30:57.171Z,41.6
2018-09-01T03:31:46.131Z,41.6
2018-09-01T03:32:37.009Z,41.6
2018-09-01T03:33:27.091Z,41.6
2018-09-01T03:34:16.621Z,41.6
2018-09-01T03:35:07.427Z,41.6
2018-09-01T03:35:58.602Z,41.5
2018-09-01T03:36:47.538Z,41.5
2018-09-01T03:37:37.900Z,41.5
2018-09-01T03:38:27.908Z,41.5
2018-09-01T03:39:16.915Z,41.5
2018-09-01T03:40:07.795Z,41.5
2018-09-01T03:40:58.425Z,41.5
2018-09-01T03:41:48.480Z,41.5
2018-09-01T03:42:37.668Z,41.4
2018-09-01T03:43:27.735Z,41.5
2018-09-01T03:44:17.530Z,41.4
2018-09-01T03:45:07.900Z,41.4
2018-09-01T03:45:58.214Z,41.4
2018-09-01T03:46:48.333Z,41.4
2018-09-01T03:47:37.827Z,41.4
2018-09-01T03:48:28.691Z,41.4
2018-09-01T03:49:18.766Z,41.4
2018-09-01T03:50:08.862Z,41.4
2018-09-01T03:50:58.859Z,41.4
2018-09-01T03:51:49.031Z,41.4
2018-09-01T03:52:38.766Z,41.4
2018-09-01T03:53:29.134Z,41.4
2018-09-01T03:54:18.903Z,41.4
2018-09-01T03:55:09.265Z,41.4
2018-09-01T03:55:59.564Z,41.4
2018-09-01T03:56:49.375Z,41.4
2018-09-01T03:57:39.137Z,41.4
2018-09-01T03:58:29.732Z,41.4
2018-09-01T03:59:19.015Z,41.4
2018-09-01T04:00:09.663Z,41.4
2018-09-01T04:00:59.144Z,41.4
2018-09-01T04:01:49.707Z,41.3
2018-09-01T04:02:39.822Z,41.3
2018-09-01T04:03:29.578Z,41.3
2018-09-01T04:04:19.691Z,41.4
2018-09-01T04:05:10.311Z,41.3
2018-09-01T04:06:00.319Z,41.3
2018-09-01T04:06:50.392Z,41.3
2018-09-01T04:07:40.476Z,41.3
2018-09-01T04:08:30.602Z,41.3
2018-09-01T04:09:20.626Z,41.3
2018-09-01T04:10:10.389Z,41.3
2018-09-01T04:10:59.657Z,41.3
2018-09-01T04:11:49.944Z,41.3
2018-09-01T04:12:40.560Z,41.3
2018-09-01T04:13:29.804Z,41.3
2018-09-01T04:14:21.231Z,41.3
2018-09-01T04:15:10.481Z,41.3
2018-09-01T04:16:00.800Z,41.3
2018-09-01T04:16:50.864Z,41.3
2018-09-01T04:17:41.235Z,41.3
2018-09-01T04:18:30.749Z,41.3
2018-09-01T04:19:20.853Z,41.3
2018-09-01T04:20:11.161Z,41.3
2018-09-01T04:21:01.197Z,41.2
2018-09-01T04:21:51.321Z,41.2
2018-09-01T04:22:42.169Z,41.2
2018-09-01T04:23:31.163Z,41.2
2018-09-01T04:24:20.647Z,41.2
2018-09-01T04:25:11.267Z,41.2
2018-09-01T04:26:01.035Z,41.2
2018-09-01T04:26:51.943Z,41.2
2018-09-01T04:27:41.170Z,41.2
2018-09-01T04:28:31.802Z,41.2
2018-09-01T04:29:21.635Z,41.2
2018-09-01T04:30:11.650Z,41.1
2018-09-01T04:31:02.265Z,41.1
2018-09-01T04:31:52.298Z,41.2
2018-09-01T04:32:41.865Z,41.2
2018-09-01T04:33:31.880Z,41.2
2018-09-01T04:34:22.037Z,41.1
2018-09-01T04:35:12.619Z,41.1
2018-09-01T04:36:02.391Z,41.2
2018-09-01T04:36:52.981Z,41.1
2018-09-01T04:37:42.530Z,41.1
2018-09-01T04:38:32.504Z,41.1
2018-09-01T04:39:22.620Z,41.1
2018-09-01T04:40:12.398Z,41.1
2018-09-01T04:41:01.939Z,41.1
2018-09-01T04:41:53.326Z,41.1
2018-09-01T04:42:42.284Z,41.1
2018-09-01T05:00:19.531Z,41
2018-09-01T05:01:13.985Z,41
2018-09-01T05:01:59.714Z,41
2018-09-01T05:02:50.654Z,41
2018-09-01T05:03:39.890Z,41
2018-09-01T05:04:30.798Z,41
2018-09-01T05:05:19.683Z,40.9
2018-09-01T05:06:11.122Z,40.9
2018-09-01T05:06:59.992Z,40.9
2018-09-01T05:07:50.753Z,40.9
2018-09-01T05:08:39.911Z,40.9
2018-09-01T05:09:30.852Z,40.9
2018-09-01T05:10:20.864Z,40.9
2018-09-01T05:11:10.971Z,40.9
2018-09-01T05:12:00.756Z,40.9
2018-09-01T05:12:50.835Z,40.9
2018-09-01T05:13:40.456Z,40.9
2018-09-01T05:14:31.782Z,40.9
2018-09-01T05:15:21.542Z,40.9
2018-09-01T05:16:10.846Z,40.9
2018-09-01T05:17:00.893Z,40.9
2018-09-01T05:17:51.162Z,40.9
2018-09-01T05:18:41.581Z,40.9
2018-09-01T05:19:31.863Z,40.9
2018-09-01T05:20:21.378Z,40.9
2018-09-01T05:21:10.870Z,40.9
2018-09-01T05:22:01.262Z,40.9
2018-09-01T05:22:52.112Z,40.9
2018-09-01T05:23:42.181Z,40.9
2018-09-01T05:24:32.309Z,40.9
2018-09-01T05:25:22.114Z,40.8
2018-09-01T05:26:11.867Z,40.8
2018-09-01T05:27:02.184Z,40.8
2018-09-01T05:27:52.502Z,40.8
2018-09-01T05:28:42.052Z,40.8
2018-09-01T05:29:32.440Z,40.8
2018-09-01T05:30:22.162Z,40.8
2018-09-01T05:31:12.722Z,40.8
2018-09-01T05:32:02.588Z,40.8
2018-09-01T05:32:52.217Z,40.8
2018-09-01T05:33:42.744Z,40.8
2018-09-01T05:34:32.010Z,40.8
2018-09-01T05:35:21.986Z,40.8
2018-09-01T05:36:12.771Z,40.8
2018-09-01T05:37:03.009Z,40.8
2018-09-01T05:37:52.814Z,40.8
2018-09-01T05:38:42.527Z,40.8
2018-09-01T05:39:33.159Z,40.8
2018-09-01T05:40:22.984Z,40.8
2018-09-01T05:41:13.233Z,40.8
2018-09-01T05:42:02.749Z,40.8
2018-09-01T05:42:53.211Z,40.8
2018-09-01T05:43:44.367Z,40.8
2018-09-01T05:44:33.276Z,40.8
2018-09-01T05:45:23.893Z,40.8
2018-09-01T05:46:13.467Z,40.8
2018-09-01T05:47:04.263Z,40.8
2018-09-01T05:47:53.808Z,40.7
2018-09-01T05:48:43.644Z,40.7
2018-09-01T05:49:33.216Z,40.7
2018-09-01T05:50:24.367Z,40.7
2018-09-01T05:51:14.170Z,40.7
2018-09-01T05:52:04.460Z,40.7
2018-09-01T05:52:54.230Z,40.7
2018-09-01T05:53:44.266Z,40.7
2018-09-01T05:54:34.339Z,40.7
2018-09-01T05:55:24.120Z,40.7
2018-09-01T05:56:13.653Z,40.7
2018-09-01T05:57:03.939Z,40.7
2018-09-01T05:57:54.865Z,40.7
2018-09-01T05:58:44.377Z,40.7
2018-09-01T05:59:35.305Z,40.6
2018-09-01T06:00:24.822Z,40.6
2018-09-01T06:01:14.414Z,40.6
2018-09-01T06:02:05.705Z,40.6
2018-09-01T06:02:55.278Z,40.6
2018-09-01T06:03:44.574Z,40.6
2018-09-01T06:04:34.827Z,40.6
2018-09-01T06:05:24.585Z,40.6
2018-09-01T06:06:17.221Z,40.6
2018-09-01T06:07:05.642Z,40.6
2018-09-01T06:07:55.145Z,40.6
2018-09-01T06:08:45.723Z,40.6
2018-09-01T06:09:35.757Z,40.6
2018-09-01T06:10:25.260Z,40.6
2018-09-01T06:11:15.861Z,40.6
2018-09-01T06:12:05.888Z,40.6
2018-09-01T06:12:55.956Z,40.6
2018-09-01T06:13:44.936Z,40.6
2018-09-01T06:14:35.564Z,40.6
2018-09-01T06:15:25.674Z,40.6
2018-09-01T06:16:14.989Z,40.6
2018-09-01T06:17:05.814Z,40.6
2018-09-01T06:17:57.653Z,40.6
2018-09-01T06:18:45.914Z,40.6
2018-09-01T06:19:35.770Z,40.6
2018-09-01T06:20:26.029Z,40.6
2018-09-01T06:21:15.829Z,40.6
2018-09-01T06:22:06.737Z,40.6
2018-09-01T06:22:57.031Z,40.5
2018-09-01T06:23:46.529Z,40.6
2018-09-01T06:24:36.701Z,40.5
2018-09-01T06:25:26.786Z,40.6
2018-09-01T06:26:16.247Z,40.5
2018-09-01T06:27:06.869Z,40.5
2018-09-01T06:27:56.931Z,40.5
2018-09-01T06:28:46.946Z,40.5
2018-09-01T06:29:37.061Z,40.5
2018-09-01T06:30:27.411Z,35.9
2018-09-01T06:31:17.385Z,32.4
2018-09-01T06:32:07.266Z,39.2
2018-09-01T06:32:58.426Z,41.2
2018-09-01T06:33:47.645Z,41.6
2018-09-01T06:34:37.223Z,41.6
2018-09-01T06:35:26.371Z,41.4
2018-09-01T06:36:17.623Z,41.1
2018-09-01T06:37:06.959Z,40.9
2018-09-01T06:37:58.233Z,40.7
2018-09-01T06:38:47.763Z,40.6
2018-09-01T06:39:37.296Z,40.6
2018-09-01T06:40:27.695Z,40.6
2018-09-01T06:41:17.439Z,40.6
2018-09-01T06:42:07.579Z,40.7
2018-09-01T06:42:59.141Z,40.8
2018-09-01T06:43:48.372Z,40.8
2018-09-01T06:44:38.170Z,40.8
2018-09-01T06:45:28.512Z,40.3
2018-09-01T06:46:17.445Z,41.4
2018-09-01T06:47:08.358Z,46.6
2018-09-01T06:47:58.181Z,47.7
2018-09-01T06:48:47.900Z,47.2
2018-09-01T06:49:38.556Z,46.4
2018-09-01T06:50:28.023Z,46.3
2018-09-01T06:51:18.708Z,46.8
2018-09-01T06:52:08.769Z,47.6
2018-09-01T06:52:58.516Z,48.3
2018-09-01T06:53:48.567Z,48.8
2018-09-01T06:54:38.740Z,49.1
2018-09-01T06:55:28.222Z,49.2
2018-09-01T06:56:18.517Z,49.3
2018-09-01T06:57:09.171Z,49.4
2018-09-01T06:57:58.888Z,49.7
2018-09-01T06:58:49.479Z,49.9
2018-09-01T06:59:39.051Z,50.2
2018-09-01T07:00:28.824Z,50.4
2018-09-01T07:01:19.771Z,50.6
2018-09-01T07:02:09.251Z,50.8
2018-09-01T07:02:59.319Z,50.9
2018-09-01T07:03:49.868Z,51.1
2018-09-01T07:04:39.756Z,51.2
2018-09-01T07:05:28.366Z,51.4
2018-09-01T07:06:19.881Z,51.6
2018-09-01T07:07:09.921Z,51.7
2018-09-01T07:07:59.106Z,51.9
2018-09-01T07:08:51.298Z,52
2018-09-01T07:09:40.303Z,52.1
2018-09-01T07:10:29.951Z,52.3
2018-09-01T07:11:20.233Z,52.4
2018-09-01T07:12:09.456Z,52.6
2018-09-01T07:12:59.836Z,52.7
2018-09-01T07:13:50.463Z,52.8
2018-09-01T07:14:40.228Z,52.9
2018-09-01T07:15:30.553Z,53
2018-09-01T07:16:20.048Z,53.1
2018-09-01T07:17:09.638Z,53.2
2018-09-01T07:18:00.473Z,53.3
2018-09-01T07:18:50.557Z,53.4
2018-09-01T07:19:40.875Z,53.6
2018-09-01T07:20:30.870Z,53.7
2018-09-01T07:21:20.745Z,53.9
2018-09-01T07:22:11.115Z,54
2018-09-01T07:23:01.177Z,54.1
2018-09-01T07:23:50.430Z,54.3
2018-09-01T07:24:41.530Z,54.4
2018-09-01T07:25:31.297Z,54.6
2018-09-01T07:26:21.145Z,54.7
2018-09-01T07:27:10.435Z,54.8
2018-09-01T07:28:01.227Z,54.9
2018-09-01T07:28:52.097Z,55
2018-09-01T07:29:41.939Z,55.1
2018-09-01T07:30:34.426Z,55.3
2018-09-01T07:31:24.889Z,55.4
2018-09-01T07:32:12.152Z,55.6
2018-09-01T07:33:01.716Z,55.8
2018-09-01T07:33:52.179Z,55.9
2018-09-01T07:34:41.040Z,56
2018-09-01T07:35:32.722Z,56.1
2018-09-01T07:36:21.699Z,56.3
2018-09-01T07:37:12.239Z,56.4
2018-09-01T07:38:02.009Z,56.5
2018-09-01T07:38:52.394Z,56.6
2018-09-01T07:39:42.146Z,56.8
2018-09-01T07:40:32.737Z,56.9
2018-09-01T07:41:22.286Z,57.1
2018-09-01T07:42:12.086Z,57.2
2018-09-01T07:43:01.945Z,57.3
2018-09-01T07:43:51.978Z,57.4
2018-09-01T07:44:42.591Z,57.6
2018-09-01T07:45:32.633Z,57.7
2018-09-01T07:46:22.184Z,57.8
2018-09-01T07:47:12.630Z,57.9
2018-09-01T07:48:02.520Z,58.1
2018-09-01T07:48:53.434Z,58.2
2018-09-01T07:49:43.273Z,58.3
2018-09-01T07:50:33.574Z,58.4
2018-09-01T07:51:23.404Z,58.6
2018-09-01T07:52:13.157Z,58.7
2018-09-01T07:53:03.434Z,58.8
2018-09-01T07:53:53.260Z,58.9
2018-09-01T07:54:44.195Z,59.1
2018-09-01T07:55:33.400Z,59.2
2018-09-01T07:56:24.511Z,59.3
2018-09-01T07:57:13.862Z,59.4
2018-09-01T07:58:03.605Z,59.6
2018-09-01T07:58:53.453Z,59.7
2018-09-01T07:59:44.230Z,59.8
2018-09-01T08:00:33.803Z,59.9
2018-09-01T08:01:24.144Z,60.1
2018-09-01T08:02:13.925Z,60.2
2018-09-01T08:03:03.446Z,60.3
2018-09-01T08:03:54.885Z,60.4
2018-09-01T08:04:43.649Z,60.5
2018-09-01T08:05:34.259Z,60.6
2018-09-01T08:06:24.858Z,60.8
2018-09-01T08:07:14.279Z,60.9
2018-09-01T08:08:04.948Z,61.1
2018-09-01T08:08:53.481Z,61.2
2018-09-01T08:09:44.472Z,61.3
2018-09-01T08:10:33.989Z,61.4
2018-09-01T08:11:24.924Z,61.6
2018-09-01T08:12:14.709Z,61.7
2018-09-01T08:13:05.102Z,61.8
2018-09-01T08:13:57.656Z,61.9
2018-09-01T08:14:47.122Z,62.1
2018-09-01T08:15:34.329Z,62.2
2018-09-01T08:16:26.769Z,62.3
2018-09-01T08:17:15.374Z,62.4
2018-09-01T08:18:05.456Z,62.5
2018-09-01T08:18:54.168Z,62.6
2018-09-01T08:19:45.251Z,62.8
2018-09-01T08:20:34.791Z,62.9
2018-09-01T08:21:25.749Z,63
2018-09-01T08:22:14.119Z,63.1
2018-09-01T08:23:04.956Z,63.3
2018-09-01T08:23:55.613Z,63.4
2018-09-01T08:24:45.430Z,63.5
2018-09-01T08:25:36.029Z,63.6
2018-09-01T08:26:25.829Z,63.8
2018-09-01T08:27:15.893Z,63.8
2018-09-01T08:28:06.502Z,63.9
2018-09-01T08:28:56.006Z,64.1
2018-09-01T08:29:45.500Z,64.2
2018-09-01T08:30:35.940Z,64.4
2018-09-01T08:31:25.419Z,64.4
2018-09-01T08:32:16.060Z,64.6
2018-09-01T08:33:06.020Z,64.7
2018-09-01T08:33:57.360Z,64.8
2018-09-01T08:34:47.030Z,64.9
2018-09-01T08:35:37.053Z,65
2018-09-01T08:36:26.581Z,65.1
2018-09-01T08:37:16.177Z,65.3
2018-09-01T08:38:06.703Z,65.4
2018-09-01T08:38:56.760Z,65.4
2018-09-01T08:39:47.089Z,65.6
2018-09-01T08:40:36.354Z,65.7
2018-09-01T08:41:26.685Z,65.8
2018-09-01T08:42:17.369Z,65.8
2018-09-01T08:43:06.873Z,65.9
2018-09-01T08:43:57.156Z,66
2018-09-01T08:44:47.011Z,66.1
2018-09-01T08:45:37.311Z,66.1
2018-09-01T08:46:27.365Z,66.2
2018-09-01T08:47:17.207Z,66.3
2018-09-01T08:48:07.779Z,66.3
2018-09-01T08:48:57.869Z,66.3
2018-09-01T08:49:47.917Z,66.4
2018-09-01T08:50:38.514Z,66.4
2018-09-01T08:51:28.095Z,66.6
2018-09-01T08:52:17.814Z,66.6
2018-09-01T08:53:07.597Z,66.8
2018-09-01T08:53:58.536Z,66.8
2018-09-01T08:54:47.826Z,66.9
2018-09-01T08:55:37.798Z,66.9
2018-09-01T08:56:28.628Z,67
2018-09-01T08:57:17.936Z,67.1
2018-09-01T08:58:09.114Z,67.1
2018-09-01T09:14:53.977Z,68.6
2018-09-01T09:15:57.150Z,68.7
2018-09-01T09:16:31.611Z,68.7
2018-09-01T09:17:22.250Z,68.7
2018-09-01T09:18:12.753Z,68.8
2018-09-01T09:19:02.942Z,68.9
2018-09-01T09:19:52.082Z,68.9
2018-09-01T09:20:43.343Z,69
2018-09-01T09:21:33.755Z,69.1
2018-09-01T09:22:22.617Z,69.2
2018-09-01T09:23:28.289Z,69.3
2018-09-01T09:24:04.417Z,69.4
2018-09-01T09:24:53.434Z,69.4
2018-09-01T09:25:43.364Z,69.4
2018-09-01T09:26:33.097Z,69.5
2018-09-01T09:27:23.943Z,69.6
2018-09-01T09:28:13.189Z,69.7
2018-09-01T09:29:03.279Z,69.8
2018-09-01T09:30:08.497Z,69.8
2018-09-01T09:30:44.892Z,69.9
2018-09-01T09:31:33.729Z,69.9
2018-09-01T09:32:24.263Z,70
2018-09-01T09:33:13.641Z,70
2018-09-01T09:34:04.166Z,70.1
2018-09-01T09:35:08.493Z,70.2
2018-09-01T09:35:58.314Z,70.3
2018-09-01T09:36:49.627Z,70.3
2018-09-01T09:37:24.811Z,70.4
2018-09-01T09:38:28.600Z,70.4
2018-09-01T09:39:03.944Z,70.4
2018-09-01T09:39:54.831Z,70.4
2018-09-01T09:40:45.048Z,70.5
2018-09-01T09:41:48.876Z,70.6
2018-09-01T09:42:25.618Z,70.6
2018-09-01T09:43:13.490Z,70.7
2018-09-01T09:44:04.630Z,70.8
2018-09-01T09:44:54.361Z,70.9
2018-09-01T09:45:45.440Z,70.9
2018-09-01T09:46:48.513Z,70.9
2018-09-01T09:47:25.109Z,71
2018-09-01T09:48:29.062Z,71.1
2018-09-01T09:49:05.270Z,71.1
2018-09-01T09:49:54.850Z,71.1
2018-09-01T09:50:59.754Z,71.2
2018-09-01T09:51:35.410Z,71.3
2018-09-01T09:52:40.648Z,71.3
2018-09-01T09:53:15.407Z,71.4
2018-09-01T09:54:05.100Z,71.4
2018-09-01T09:54:55.469Z,71.5
2018-09-01T09:55:45.485Z,71.6
2018-09-01T09:56:50.198Z,71.6
2018-09-01T09:57:25.325Z,71.8
2018-09-01T09:58:31.312Z,71.8
2018-09-01T09:59:05.768Z,71.8
2018-09-01T09:59:56.039Z,71.8
2018-09-01T10:00:45.569Z,71.9
2018-09-01T10:01:36.719Z,71.9
2018-09-01T10:02:26.591Z,71.9
2018-09-01T10:03:16.605Z,71.9
2018-09-01T10:04:06.649Z,72.1
2018-09-01T10:04:56.195Z,72.1
2018-09-01T10:05:47.368Z,72.2
2018-09-01T10:06:51.371Z,72.3
2018-09-01T10:07:26.064Z,72.3
2018-09-01T10:08:16.469Z,72.3
2018-09-01T10:09:06.609Z,72.4
2018-09-01T10:10:10.650Z,72.4
2018-09-01T10:10:46.433Z,72.4
2018-09-01T10:11:37.024Z,72.4
2018-09-01T10:12:27.139Z,72.5
2018-09-01T10:13:17.874Z,72.6
2018-09-01T10:14:07.362Z,72.6
2018-09-01T10:14:56.753Z,72.6
2018-09-01T10:15:47.454Z,72.7
2018-09-01T10:16:37.556Z,72.8
2018-09-01T10:17:28.187Z,72.8
2018-09-01T10:18:16.984Z,72.8
2018-09-01T10:19:07.081Z,72.8
2018-09-01T10:19:57.750Z,72.9
2018-09-01T10:20:47.966Z,72.9
2018-09-01T10:21:38.053Z,72.9
2018-09-01T10:22:43.003Z,73
2018-09-01T10:23:17.374Z,73
2018-09-01T10:24:21.538Z,73.1
2018-09-01T10:25:12.706Z,73.1
2018-09-01T10:26:53.588Z,73.3
2018-09-01T10:27:27.678Z,73.3
2018-09-01T10:28:32.896Z,73.3
2018-09-01T10:29:22.148Z,73.4
2018-09-01T10:30:13.791Z,73.4
2018-09-01T10:31:03.625Z,73.5
2018-09-01T10:31:39.035Z,73.5
2018-09-01T10:32:28.444Z,73.6
2018-09-01T10:33:18.970Z,73.6
2018-09-01T10:34:09.870Z,73.6
2018-09-01T10:34:58.370Z,73.6
2018-09-01T10:35:49.075Z,73.6
2018-09-01T10:36:39.175Z,73.7
2018-09-01T10:37:57.940Z,73.7
2018-09-01T10:38:35.152Z,73.8
2018-09-01T10:39:09.366Z,73.8
2018-09-01T10:39:59.205Z,73.8
2018-09-01T10:40:48.714Z,73.8
2018-09-01T10:41:39.091Z,73.8
2018-09-01T10:42:29.757Z,73.8
2018-09-01T10:43:20.470Z,73.8
2018-09-01T10:44:24.900Z,73.8
2018-09-01T10:45:14.287Z,73.8
2018-09-01T10:46:05.167Z,73.8
2018-09-01T10:46:39.713Z,73.9
2018-09-01T10:47:29.561Z,73.9
2018-09-01T10:48:49.456Z,73.9
2018-09-01T10:49:09.945Z,74
2018-09-01T10:50:00.290Z,74
2018-09-01T10:50:50.220Z,74.1
2018-09-01T10:51:54.262Z,74.1
2018-09-01T10:52:45.850Z,74.1
2018-09-01T10:53:19.736Z,74.2
2018-09-01T10:54:10.288Z,74.2
2018-09-01T10:55:00.872Z,74.3
2018-09-01T10:56:04.571Z,74.3
2018-09-01T10:56:40.929Z,74.3
2018-09-01T10:57:45.414Z,74.3
2018-09-01T10:58:21.084Z,74.3
2018-09-01T10:59:15.018Z,74.3
2018-09-01T11:00:00.997Z,74.3
2018-09-01T11:00:50.742Z,74.3
2018-09-01T11:01:55.447Z,74.4
2018-09-01T11:03:02.101Z,74.4
2018-09-01T11:03:20.207Z,74.4
2018-09-01T11:04:27.394Z,74.5
2018-09-01T11:05:01.218Z,74.5
2018-09-01T11:05:51.051Z,74.6
2018-09-01T11:06:55.991Z,74.6
2018-09-01T11:07:31.404Z,74.6
2018-09-01T11:08:21.593Z,74.6
2018-09-01T11:09:25.314Z,74.6
2018-09-01T11:10:01.352Z,74.7
2018-09-01T11:10:51.206Z,74.7
2018-09-01T11:11:40.927Z,74.8
2018-09-01T11:12:30.977Z,74.8
2018-09-01T11:13:21.100Z,74.8
2018-09-01T11:14:12.345Z,74.8
2018-09-01T11:15:01.104Z,74.8
2018-09-01T11:15:51.262Z,74.8
2018-09-01T11:16:41.704Z,74.8
2018-09-01T11:17:32.042Z,74.8
2018-09-01T11:18:22.336Z,74.8
2018-09-01T11:19:12.239Z,74.8
2018-09-01T11:20:02.543Z,74.7
2018-09-01T11:21:08.108Z,74.7
2018-09-01T11:21:58.306Z,74.6
2018-09-01T11:22:31.878Z,74.6
2018-09-01T11:23:51.449Z,74.6
2018-09-01T11:24:31.981Z,74.6
2018-09-01T11:25:08.076Z,74.6
2018-09-01T11:25:57.641Z,74.6
2018-09-01T11:26:46.895Z,74.6
2018-09-01T11:27:38.300Z,74.6
2018-09-01T11:28:28.086Z,74.6
2018-09-01T11:29:17.581Z,74.7
2018-09-01T11:30:07.716Z,74.8
2018-09-01T11:31:11.591Z,74.8
2018-09-01T11:32:03.178Z,74.9
2018-09-01T11:32:37.613Z,74.9
2018-09-01T11:33:58.523Z,75
2018-09-01T11:34:18.218Z,75
2018-09-01T11:35:23.785Z,75
2018-09-01T11:35:57.685Z,75
2018-09-01T11:36:48.408Z,75
2018-09-01T11:37:38.725Z,75
2018-09-01T11:38:28.600Z,75
2018-09-01T11:39:18.615Z,75
2018-09-01T11:40:22.956Z,75
2018-09-01T11:40:58.663Z,75.1
2018-09-01T11:41:49.298Z,75.1
2018-09-01T11:42:40.316Z,75.1
2018-09-01T11:43:28.285Z,75
2018-09-01T11:44:33.273Z,75
2018-09-01T11:45:08.833Z,75
2018-09-01T11:46:13.607Z,75
2018-09-01T11:47:03.345Z,75.1
2018-09-01T11:47:38.830Z,75.1
2018-09-01T11:48:29.967Z,75
2018-09-01T11:49:19.652Z,75.1
2018-09-01T11:50:10.245Z,75.1
2018-09-01T11:51:49.060Z,75.1
2018-09-01T11:52:39.910Z,75.1
2018-09-01T11:53:45.216Z,75.1
2018-09-01T11:54:34.212Z,75.1
2018-09-01T11:55:10.017Z,75.1
2018-09-01T11:56:50.162Z,75.1
2018-09-01T11:57:39.860Z,75.1
2018-09-01T11:58:30.136Z,75.1
2018-09-01T11:59:34.662Z,75.1
2018-09-01T12:00:09.832Z,75.1
2018-09-01T12:01:29.483Z,75.1
2018-09-01T12:01:51.264Z,75
2018-09-01T12:02:40.682Z,75
2018-09-01T12:03:45.078Z,74.9